Allamuchy, NJ

10:23 PM EDT on October 01, 2014 (GMT -0400)
Panther Valley | Change Station
CLOSE
Current Station
Personal Weather Station
Location: Allamuchy, NJ
Elevation: 910 ft
Nearby Weather Stations

Elev 910 ft 40.90 °N, 74.85 °W | Updated 5 seconds ago

Overcast
Overcast
59.6 °F
Feels Like 59.6 °F
N
1.0
Wind Variable Wind from ENE
Gusts 0.0 mph

Today
High -- | Low -- °F
--% Chance of Precip.
Yesterday
High -- | Low -- °F
Precip. -- in
6:55 AM 6:41 PM
First Quarter, 53% visible
Pressure 30.06 in
Visibility 10.0 miles
Clouds Few 2300 ft
Mostly Cloudy 4300 ft
Dew Point 59 °F
Humidity 97%
Rainfall 0.00 in
Snow Depth Not available.
UV 0 out of 12
Pollen 2.30 out of 12
Air Quality Not available.
Flu Activity Not available.
METAR KSMQ 020153Z AUTO 00000KT 10SM FEW023 BKN043 17/14 A3006 RMK AO2 SLP177 T01670139

More Conditions Fewer Conditions

Pressure 30.06 in
Visibility 10.0 miles
Clouds Few 2300 ft
Mostly Cloudy 4300 ft
Dew Point 59 °F
Humidity 97%
Rainfall 0.00 in
Snow Depth Not available.
UV 0 out of 12
Pollen 2.30 out of 12
Air Quality Not available.
Flu Activity Not available.
METAR KSMQ 020153Z AUTO 00000KT 10SM FEW023 BKN043 17/14 A3006 RMK AO2 SLP177 T01670139

More Conditions Fewer Conditions

10-Day Weather Forecast

Almanac

Astronomy

Oct. 01, 2014 Rise Set
Actual Time 6:55 AM EDT 6:41 PM EDT
Civil Twilight 6:28 AM EDT 7:08 PM EDT
Nautical Twilight 5:56 AM EDT 7:40 PM EDT
Astronomical Twilight 5:24 AM EDT 8:12 PM EDT
Moon 1:56 PM EDT (10/1) No Moon Set
Length of Visible Light 12h 40m
Length of Day
11h 45m
Tomorrow will be 2m 41s shorter.
First Quarter, 53% of the Moon is Illuminated
Today
First Quarter
Oct 8
Full
Oct 15
Last Quarter
Oct 23
New
Oct 30
First Quarter

Today's Extremes

State Highs State Lows

Community

WunderPhotos

Upload Photos

1,758,142 photos uploaded!

WunderBlogs® & News

Nearby

Snow Depth

Station Depth Elevation
No new snow has been reported.

Earthquake Activity

City Distance Mag. Time & Date
No recent earthquake activity has been reported nearby.
Minimum magnitude displayed is 2.5.

Coastal Water Temperatures

Place Temperature
No Stations Reporting

Nearby Weather Stations